Time;durP1;ratioP1;P1;durP2;ratioP2;P2;SDS_P1;SDS_P2;PMS_P1;PMS_P2;Temp;Humidity;BMP_temperature;BMP_pressure;BME280_temperature;BME280_humidity;BME280_pressure;Samples;Min_cycle;Max_cycle;Signal;HPM_P1;HPM_P2
2023/07/09 00:01:36;;;;;;;14.95;9.07;;;;;;;23.62;77.72;101594.47;5060442;28;20025;-84
2023/07/09 00:04:02;;;;;;;10.65;7.95;;;;;;;23.58;77.67;101596.63;5062462;28;20075;-84
2023/07/09 00:06:27;;;;;;;10.23;7.47;;;;;;;23.50;78.47;101595.22;5059851;28;20024;-84
2023/07/09 00:08:53;;;;;;;13.10;7.55;;;;;;;23.47;78.07;101591.22;5060798;28;20036;-84
2023/07/09 00:11:18;;;;;;;12.18;7.45;;;;;;;23.41;78.51;101586.53;5056244;28;20500;-84
2023/07/09 00:13:44;;;;;;;10.93;8.07;;;;;;;23.46;77.80;101597.38;5073197;28;20407;-84
2023/07/09 00:16:14;;;;;;;13.63;9.18;;;;;;;23.42;78.42;101590.97;5037808;28;20078;-84
2023/07/09 00:18:40;;;;;;;12.80;8.48;;;;;;;23.41;79.16;101597.94;5063074;28;20809;-84
2023/07/09 00:21:05;;;;;;;12.82;7.20;;;;;;;23.39;78.53;101604.09;5050285;28;20382;-84
2023/07/09 00:23:31;;;;;;;12.98;8.07;;;;;;;23.34;78.79;101598.94;5052427;28;20051;-85
2023/07/09 00:25:56;;;;;;;13.10;7.78;;;;;;;23.32;79.10;101599.41;5054525;28;20063;-84
2023/07/09 00:28:22;;;;;;;12.82;7.93;;;;;;;23.32;77.83;101598.59;5072764;28;20028;-84
2023/07/09 00:30:48;;;;;;;12.07;7.80;;;;;;;23.29;78.35;101597.41;5053043;28;20028;-85
2023/07/09 00:33:16;;;;;;;14.25;9.63;;;;;;;23.16;79.10;101581.50;5061122;28;20055;-85
2023/07/09 00:35:48;;;;;;;12.68;7.20;;;;;;;23.20;78.82;101588.69;5059007;28;20020;-84
2023/07/09 00:38:21;;;;;;;11.32;7.65;;;;;;;23.17;79.34;101588.78;5073566;28;20538;-84
2023/07/09 00:41:09;;;;;;;9.57;7.20;;;;;;;23.17;79.50;101592.47;5066851;28;20059;-84
2023/07/09 00:43:36;;;;;;;13.10;8.40;;;;;;;23.08;79.21;101595.94;5059607;28;20779;-84
2023/07/09 00:46:36;;;;;;;12.07;9.25;;;;;;;23.06;79.32;101589.06;5051508;28;20061;-85
2023/07/09 00:49:08;;;;;;;14.30;8.80;;;;;;;23.03;78.98;101590.78;5059553;28;20086;-85
2023/07/09 00:51:41;;;;;;;11.85;8.13;;;;;;;23.00;81.53;101594.50;5052469;28;20037;-84
2023/07/09 00:54:20;;;;;;;11.43;7.45;;;;;;;22.97;80.02;101583.97;5055976;28;20126;-84
2023/07/09 00:56:51;;;;;;;8.82;6.90;;;;;;;22.93;80.02;101591.81;5053545;28;20356;-84
2023/07/09 00:59:19;;;;;;;11.05;7.85;;;;;;;22.80;80.42;101577.47;5058561;28;20024;-84
2023/07/09 01:01:47;;;;;;;13.23;8.63;;;;;;;22.89;79.67;101591.91;5051297;28;20098;-84
2023/07/09 01:04:13;;;;;;;10.32;7.93;;;;;;;22.89;79.02;101586.19;5056972;28;20024;-84
2023/07/09 01:06:45;;;;;;;14.00;8.77;;;;;;;22.84;80.11;101589.59;5053132;28;20620;-84
2023/07/09 01:09:10;;;;;;;13.77;8.68;;;;;;;22.87;80.08;101588.69;5057423;28;20032;-84
2023/07/09 01:11:38;;;;;;;13.73;8.10;;;;;;;22.77;80.43;101583.25;5058909;28;20032;-84
2023/07/09 01:14:07;;;;;;;10.77;7.82;;;;;;;22.75;81.33;101603.72;5077977;28;20024;-84
2023/07/09 01:16:37;;;;;;;12.20;7.97;;;;;;;22.74;80.65;101588.63;5062461;28;20428;-84
2023/07/09 01:19:04;;;;;;;13.65;8.57;;;;;;;22.73;79.94;101589.09;5074095;28;20037;-83
2023/07/09 01:21:29;;;;;;;13.65;8.35;;;;;;;22.74;80.44;101593.53;5072497;28;20436;-84
2023/07/09 01:23:57;;;;;;;11.23;7.60;;;;;;;22.69;80.77;101599.78;5059733;28;20086;-84
2023/07/09 01:26:26;;;;;;;11.52;8.00;;;;;;;22.65;80.36;101587.66;5061898;28;20142;-84
2023/07/09 01:28:56;;;;;;;14.60;9.27;;;;;;;22.64;80.93;101586.03;5056251;28;20032;-84
2023/07/09 01:31:23;;;;;;;17.02;8.48;;;;;;;22.58;81.62;101593.50;5055711;28;20060;-83
2023/07/09 01:33:49;;;;;;;12.63;8.13;;;;;;;22.56;80.75;101591.13;5054985;28;20082;-84
2023/07/09 01:36:22;;;;;;;14.50;7.95;;;;;;;22.57;80.75;101591.91;5058754;28;20024;-84
2023/07/09 01:38:49;;;;;;;11.55;7.38;;;;;;;22.52;80.85;101588.34;5056073;28;20028;-84
2023/07/09 01:41:14;;;;;;;12.82;8.35;;;;;;;22.61;79.75;101586.94;5057129;28;20032;-84
2023/07/09 01:43:41;;;;;;;13.70;8.77;;;;;;;22.45;81.65;101571.41;5056622;28;20039;-83
2023/07/09 01:46:08;;;;;;;14.68;8.50;;;;;;;22.39;81.41;101567.47;5060874;28;20040;-83
2023/07/09 01:48:40;;;;;;;15.40;8.68;;;;;;;22.48;80.46;101590.47;5054842;28;20511;-84
2023/07/09 01:51:10;;;;;;;13.90;8.95;;;;;;;22.44;80.70;101588.97;5057243;28;20037;-83
2023/07/09 01:53:37;;;;;;;15.38;9.13;;;;;;;22.35;81.83;101586.72;5053885;28;20603;-84
2023/07/09 01:56:03;;;;;;;11.63;8.10;;;;;;;22.37;80.94;101586.25;5065073;28;20511;-83
2023/07/09 01:58:30;;;;;;;12.98;8.32;;;;;;;22.35;81.21;101597.31;5060268;28;20024;-84
2023/07/09 02:00:56;;;;;;;14.52;9.25;;;;;;;22.32;80.85;101590.44;5056842;28;20037;-84
2023/07/09 02:03:22;;;;;;;14.15;8.48;;;;;;;22.32;81.22;101587.59;5063662;28;20090;-84
2023/07/09 02:05:47;;;;;;;11.35;8.52;;;;;;;22.35;81.14;101592.44;5071897;28;20032;-84
2023/07/09 02:08:13;;;;;;;15.45;9.95;;;;;;;22.31;81.07;101594.56;5058898;28;20487;-84
2023/07/09 02:10:38;;;;;;;13.43;9.23;;;;;;;22.24;80.60;101594.72;5078956;28;20115;-84
2023/07/09 02:13:04;;;;;;;19.45;8.95;;;;;;;22.28;80.78;101592.59;5058008;28;20047;-84
2023/07/09 02:15:30;;;;;;;15.60;9.88;;;;;;;22.20;81.33;101597.63;5056497;28;20028;-83
2023/07/09 02:17:55;;;;;;;12.10;8.88;;;;;;;21.99;81.36;101573.25;5076140;28;20040;-83
2023/07/09 02:20:21;;;;;;;12.38;8.15;;;;;;;22.09;80.08;101594.19;5056819;28;20044;-84
2023/07/09 02:22:49;;;;;;;13.95;9.10;;;;;;;22.16;81.34;101596.09;5060021;28;20119;-84
2023/07/09 02:25:15;;;;;;;12.07;7.95;;;;;;;22.13;81.08;101601.41;5058282;28;20419;-84
2023/07/09 02:27:40;;;;;;;12.73;8.90;;;;;;;22.09;81.56;101597.88;5057389;28;20058;-83
2023/07/09 02:30:07;;;;;;;16.10;8.82;;;;;;;22.09;81.59;101608.44;5058170;28;20029;-84
2023/07/09 02:32:33;;;;;;;15.73;9.18;;;;;;;22.09;80.77;101599.91;5055449;28;20103;-84
2023/07/09 02:34:58;;;;;;;12.00;8.38;;;;;;;22.08;81.03;101601.94;5053953;28;20044;-84
2023/07/09 02:37:25;;;;;;;12.20;9.35;;;;;;;22.04;82.43;101601.22;5054419;28;20040;-84
2023/07/09 02:39:51;;;;;;;12.88;8.85;;;;;;;21.97;81.71;101595.69;5057789;28;20031;-84
2023/07/09 02:42:20;;;;;;;12.00;8.48;;;;;;;22.03;81.49;101607.34;5056797;28;20464;-84
2023/07/09 02:44:45;;;;;;;14.45;9.60;;;;;;;22.05;82.15;101607.72;5057028;28;20060;-84
2023/07/09 02:47:11;;;;;;;14.93;9.45;;;;;;;22.08;80.68;101612.56;5068510;28;20110;-84
2023/07/09 02:49:37;;;;;;;12.05;8.23;;;;;;;22.08;80.18;101609.72;5061926;28;20060;-84
2023/07/09 02:52:03;;;;;;;15.05;9.02;;;;;;;22.04;81.52;101609.78;5079535;28;20034;-84
2023/07/09 02:54:29;;;;;;;16.35;8.90;;;;;;;22.05;80.84;101602.84;5062618;28;20478;-84
2023/07/09 02:56:54;;;;;;;13.43;9.00;;;;;;;21.99;81.68;101613.16;5066932;28;20137;-84
2023/07/09 02:59:20;;;;;;;12.88;8.35;;;;;;;22.04;80.93;101609.78;5064853;28;20476;-84
2023/07/09 03:01:47;;;;;;;14.00;8.77;;;;;;;22.01;81.14;101613.53;5062631;28;20369;-84
2023/07/09 03:04:13;;;;;;;15.13;9.05;;;;;;;22.01;81.15;101607.81;5078857;28;20032;-84
2023/07/09 03:06:39;;;;;;;13.43;9.02;;;;;;;21.96;81.17;101599.78;5061437;28;20017;-84
2023/07/09 03:09:06;;;;;;;15.63;8.23;;;;;;;22.00;79.50;101599.69;5064280;28;20492;-83
2023/07/09 03:11:33;;;;;;;15.18;8.75;;;;;;;21.97;81.06;101604.25;5047675;28;20028;-84
2023/07/09 03:14:00;;;;;;;14.20;9.20;;;;;;;21.89;80.96;101602.78;5062816;28;20036;-84
2023/07/09 03:16:27;;;;;;;12.52;9.27;;;;;;;21.95;80.90;101603.06;5065005;28;20508;-84
2023/07/09 03:18:54;;;;;;;13.13;8.30;;;;;;;21.97;79.58;101607.09;5065583;28;20056;-84
2023/07/09 03:21:20;;;;;;;15.32;9.00;;;;;;;21.96;79.84;101596.13;5056836;28;20436;-84
2023/07/09 03:23:45;;;;;;;13.75;8.57;;;;;;;21.87;79.87;101591.03;5062222;28;20040;-84
2023/07/09 03:26:11;;;;;;;19.48;9.23;;;;;;;21.98;79.02;101602.19;5063215;28;20028;-84
2023/07/09 03:28:37;;;;;;;13.15;8.68;;;;;;;21.95;79.05;101606.72;5057648;28;21733;-84
2023/07/09 03:31:02;;;;;;;12.38;8.65;;;;;;;21.97;79.40;101607.09;5062934;28;20060;-84
2023/07/09 03:33:28;;;;;;;12.95;9.02;;;;;;;21.91;78.58;101608.84;5058698;28;20469;-84
2023/07/09 03:35:54;;;;;;;14.85;8.63;;;;;;;22.00;79.08;101614.75;5064058;28;20028;-83
2023/07/09 03:38:19;;;;;;;13.25;8.10;;;;;;;21.95;79.22;101609.56;5063209;28;20471;-84
2023/07/09 03:40:45;;;;;;;14.05;9.15;;;;;;;21.89;78.63;101603.56;5062117;28;20025;-84
2023/07/09 03:43:11;;;;;;;13.43;9.30;;;;;;;22.01;78.90;101619.22;5064046;28;20040;-84
2023/07/09 03:45:37;;;;;;;15.25;8.13;;;;;;;21.96;79.54;101605.47;5059650;28;20103;-84
2023/07/09 03:48:05;;;;;;;13.27;9.25;;;;;;;21.93;81.89;101612.84;5064567;28;20028;-83
2023/07/09 03:50:31;;;;;;;13.30;9.55;;;;;;;21.90;81.41;101613.75;5058172;28;20033;-84
2023/07/09 03:52:56;;;;;;;16.08;10.07;;;;;;;21.67;81.33;101591.84;5056978;28;20043;-84
2023/07/09 03:55:21;;;;;;;13.75;8.63;;;;;;;21.79;79.30;101618.06;5057916;28;20032;-84
2023/07/09 03:57:47;;;;;;;13.82;9.73;;;;;;;21.80;80.27;101620.47;5063087;28;20506;-84
2023/07/09 04:00:14;;;;;;;15.63;10.25;;;;;;;21.77;80.77;101623.38;5053774;28;20040;-84
2023/07/09 04:02:40;;;;;;;12.70;8.40;;;;;;;21.80;79.23;101622.50;5055566;28;20111;-84
2023/07/09 04:05:08;;;;;;;17.92;10.10;;;;;;;21.69;83.24;101608.47;5053175;28;20085;-83
2023/07/09 04:07:34;;;;;;;16.30;10.70;;;;;;;21.81;81.06;101615.56;5051619;28;20438;-83
2023/07/09 04:09:59;;;;;;;14.57;9.13;;;;;;;21.82;78.83;101617.16;5058287;28;20028;-84
2023/07/09 04:12:25;;;;;;;15.75;10.60;;;;;;;21.61;82.29;101607.81;5056519;28;20499;-83
2023/07/09 04:14:50;;;;;;;15.63;9.73;;;;;;;21.76;80.32;101618.91;5040501;28;20067;-84
2023/07/09 04:17:16;;;;;;;15.57;9.68;;;;;;;21.80;81.34;101622.50;5054772;28;20392;-84
2023/07/09 04:19:41;;;;;;;12.82;8.98;;;;;;;21.76;81.88;101630.31;5059865;28;20408;-84
2023/07/09 04:22:08;;;;;;;17.67;10.32;;;;;;;21.86;81.40;101632.97;5064838;28;20115;-84
2023/07/09 04:24:33;;;;;;;14.77;9.95;;;;;;;21.79;79.69;101629.44;5060356;28;20020;-83
2023/07/09 04:27:03;;;;;;;13.60;9.80;;;;;;;21.95;79.79;101634.41;5054618;28;20039;-84
2023/07/09 04:29:35;;;;;;;18.33;11.07;;;;;;;21.97;83.95;101641.28;5054669;28;20031;-83
2023/07/09 04:32:11;;;;;;;14.48;9.57;;;;;;;21.98;79.29;101625.78;5057339;28;20457;-84
2023/07/09 04:34:38;;;;;;;15.50;11.45;;;;;;;21.79;84.58;101633.09;5054395;28;20404;-84
2023/07/09 04:37:04;;;;;;;14.82;10.38;;;;;;;21.75;86.32;101634.41;5056640;28;20036;-84
2023/07/09 04:39:29;;;;;;;15.38;9.27;;;;;;;21.83;84.24;101627.34;5060227;28;20032;-84
2023/07/09 04:41:54;;;;;;;10.63;8.32;;;;;;;21.84;79.40;101628.94;5058680;28;20127;-84
2023/07/09 04:44:20;;;;;;;15.77;11.32;;;;;;;21.98;85.14;101631.50;5062284;28;20082;-84
2023/07/09 04:46:45;;;;;;;16.60;11.25;;;;;;;21.88;84.90;101630.50;5058266;28;20082;-84
2023/07/09 04:49:12;;;;;;;14.30;9.25;;;;;;;21.78;82.90;101627.81;5060331;28;20400;-84
2023/07/09 04:51:37;;;;;;;15.77;10.35;;;;;;;21.57;86.09;101629.88;5059756;28;20036;-84
2023/07/09 04:54:03;;;;;;;18.67;12.55;;;;;;;21.48;89.92;101638.19;5061441;28;20403;-84
2023/07/09 04:56:29;;;;;;;17.02;10.52;;;;;;;21.58;90.12;101631.47;5059587;28;20631;-83
2023/07/09 04:58:55;;;;;;;17.00;10.90;;;;;;;21.70;86.86;101622.28;5064003;28;20679;-84
2023/07/09 05:01:20;;;;;;;16.60;11.48;;;;;;;21.73;87.98;101640.53;5058729;28;20021;-84
2023/07/09 05:03:45;;;;;;;20.25;12.68;;;;;;;21.67;88.70;101639.44;5075547;28;20037;-84
2023/07/09 05:06:11;;;;;;;15.68;10.63;;;;;;;21.60;89.75;101636.75;5057876;28;20040;-83
2023/07/09 05:08:36;;;;;;;17.65;11.73;;;;;;;21.65;89.57;101619.13;5060483;28;20029;-84
2023/07/09 05:11:02;;;;;;;16.58;11.18;;;;;;;21.72;87.93;101638.94;5055607;28;20389;-83
2023/07/09 05:13:28;;;;;;;16.33;9.95;;;;;;;21.77;82.93;101632.72;5061914;28;20042;-84
2023/07/09 05:15:53;;;;;;;16.38;9.98;;;;;;;21.63;84.00;101636.69;5060537;28;20032;-83
2023/07/09 05:18:19;;;;;;;17.70;11.23;;;;;;;21.75;88.65;101642.97;5057537;28;20032;-84
2023/07/09 05:20:46;;;;;;;19.75;13.77;;;;;;;21.63;91.46;101633.84;5057615;28;20400;-84
2023/07/09 05:23:12;;;;;;;15.77;11.50;;;;;;;21.73;90.81;101637.69;5078985;28;20396;-84
2023/07/09 05:25:37;;;;;;;19.25;12.00;;;;;;;21.82;91.28;101640.78;5061922;28;20094;-84
2023/07/09 05:28:04;;;;;;;15.52;12.18;;;;;;;21.82;91.85;101640.78;5056539;28;20373;-84
2023/07/09 05:30:29;;;;;;;16.63;10.35;;;;;;;21.77;86.86;101637.63;5067641;28;20037;-83
2023/07/09 05:32:57;;;;;;;18.83;13.82;;;;;;;21.83;92.14;101638.72;5059599;28;20036;-84
2023/07/09 05:35:26;;;;;;;17.45;12.48;;;;;;;21.82;92.82;101635.09;5060477;28;20555;-84
2023/07/09 05:37:55;;;;;;;17.58;10.82;;;;;;;21.93;91.63;101640.56;5078978;28;20195;-85
2023/07/09 05:40:21;;;;;;;20.80;12.77;;;;;;;22.00;91.79;101645.31;5062732;28;20120;-85
2023/07/09 05:42:48;;;;;;;15.57;11.15;;;;;;;21.91;91.67;101632.44;5063825;28;20114;-85
2023/07/09 05:45:14;;;;;;;19.58;13.30;;;;;;;21.99;93.34;101644.50;5055618;28;20460;-86
2023/07/09 05:47:39;;;;;;;19.35;12.38;;;;;;;22.05;92.99;101642.75;5060546;28;20028;-85
2023/07/09 05:50:05;;;;;;;20.27;13.02;;;;;;;22.09;92.70;101643.50;5057662;28;20040;-86
2023/07/09 05:52:30;;;;;;;21.52;12.98;;;;;;;22.19;91.75;101643.69;5057063;28;20024;-85
2023/07/09 05:54:56;;;;;;;23.80;13.02;;;;;;;22.23;90.11;101653.00;5057019;28;20369;-85
2023/07/09 05:57:22;;;;;;;17.15;11.95;;;;;;;22.26;92.20;101652.09;5056131;28;20025;-85
2023/07/09 05:59:50;;;;;;;21.75;12.15;;;;;;;22.41;92.55;101661.16;5061810;28;20036;-85
2023/07/09 06:02:18;;;;;;;19.65;12.13;;;;;;;22.45;89.80;101659.03;5058536;28;20027;-85
2023/07/09 06:04:45;;;;;;;20.15;12.70;;;;;;;22.50;91.26;101659.31;5073615;28;20334;-85
2023/07/09 06:07:11;;;;;;;18.58;12.52;;;;;;;22.56;91.37;101662.44;5060195;28;20024;-85
2023/07/09 06:09:36;;;;;;;19.80;12.65;;;;;;;22.62;91.31;101657.00;5055951;28;20410;-85
2023/07/09 06:12:03;;;;;;;16.58;10.77;;;;;;;22.63;88.29;101653.72;5060713;28;20040;-85
2023/07/09 06:14:28;;;;;;;16.23;11.48;;;;;;;22.67;87.83;101653.63;5060796;28;20553;-85
2023/07/09 06:16:54;;;;;;;21.23;11.95;;;;;;;22.69;89.82;101654.00;5054053;28;20039;-85
2023/07/09 06:19:19;;;;;;;19.10;13.23;;;;;;;22.77;92.52;101663.16;5059588;28;20123;-85
2023/07/09 06:21:45;;;;;;;21.58;12.43;;;;;;;22.77;93.89;101663.16;5055344;28;20048;-85
2023/07/09 06:24:10;;;;;;;19.67;13.93;;;;;;;22.86;92.82;101669.88;5065039;28;20033;-85
2023/07/09 06:26:36;;;;;;;19.00;13.90;;;;;;;22.93;91.66;101666.84;5058734;28;20036;-85
2023/07/09 06:29:02;;;;;;;19.27;13.63;;;;;;;23.01;91.39;101661.00;5057217;28;20035;-85
2023/07/09 06:31:27;;;;;;;19.52;13.57;;;;;;;23.13;91.33;101677.44;5057327;28;20109;-85
2023/07/09 06:33:53;;;;;;;18.00;12.70;;;;;;;23.20;90.76;101674.38;5050047;28;20511;-85
2023/07/09 06:36:19;;;;;;;21.73;13.18;;;;;;;23.25;89.95;101676.69;5060114;28;20032;-85
2023/07/09 06:38:45;;;;;;;20.83;13.00;;;;;;;23.48;89.16;101677.75;5059463;28;20023;-85
2023/07/09 06:41:11;;;;;;;18.60;12.90;;;;;;;23.57;88.84;101683.63;5054749;28;20028;-85
2023/07/09 06:43:40;;;;;;;20.83;12.82;;;;;;;23.69;89.00;101677.16;5058845;28;20075;-85
2023/07/09 06:46:08;;;;;;;17.52;11.95;;;;;;;23.68;89.73;101687.00;5070623;28;20550;-85
2023/07/09 06:48:34;;;;;;;15.15;10.48;;;;;;;23.82;88.48;101685.81;5063144;28;20039;-85
2023/07/09 06:51:00;;;;;;;19.55;12.18;;;;;;;23.85;87.78;101687.78;5061581;28;20020;-85
2023/07/09 06:53:27;;;;;;;19.75;12.68;;;;;;;23.87;88.58;101687.34;5061910;28;20036;-85
2023/07/09 06:55:55;;;;;;;19.90;11.95;;;;;;;24.04;89.03;101691.75;5062273;28;20559;-85
2023/07/09 06:58:21;;;;;;;21.90;12.88;;;;;;;24.19;86.93;101686.41;5064029;28;20021;-85
2023/07/09 07:00:48;;;;;;;15.88;12.13;;;;;;;24.29;86.73;101690.22;5056562;28;20551;-85
2023/07/09 07:03:14;;;;;;;20.05;11.15;;;;;;;24.42;87.95;101691.03;5072666;28;20484;-86
2023/07/09 07:05:50;;;;;;;19.38;11.82;;;;;;;24.44;86.04;101690.59;5062259;28;20383;-85
2023/07/09 07:08:18;;;;;;;17.48;11.18;;;;;;;24.53;87.39;101700.09;5073042;28;20032;-85
2023/07/09 07:11:05;;;;;;;16.45;11.80;;;;;;;24.69;83.31;101684.91;5081201;28;20032;-85
2023/07/09 07:13:37;;;;;;;14.70;10.00;;;;;;;24.79;85.69;101700.13;5062636;28;20484;-85
2023/07/09 07:16:07;;;;;;;18.10;11.93;;;;;;;24.87;86.81;101690.03;5058795;28;20040;-86
2023/07/09 07:18:32;;;;;;;14.75;9.90;;;;;;;24.77;85.40;101691.19;5049884;28;20044;-85
2023/07/09 07:20:58;;;;;;;23.13;11.38;;;;;;;24.86;85.65;101694.19;5060363;28;20028;-85
2023/07/09 07:23:24;;;;;;;18.33;10.77;;;;;;;24.77;88.61;101691.19;5057114;28;20039;-86
2023/07/09 07:25:50;;;;;;;16.17;10.05;;;;;;;24.81;84.09;101685.34;5047687;28;20064;-86
2023/07/09 07:28:15;;;;;;;21.25;11.95;;;;;;;24.99;85.78;101679.84;5071938;28;20039;-85
2023/07/09 07:30:42;;;;;;;15.23;11.68;;;;;;;24.94;86.89;101677.56;5060378;28;20020;-85
2023/07/09 07:33:07;;;;;;;19.95;11.38;;;;;;;25.10;86.49;101677.44;5060304;28;20032;-85
2023/07/09 07:35:33;;;;;;;17.27;11.13;;;;;;;25.35;84.58;101690.16;5057095;28;20028;-85
2023/07/09 07:37:58;;;;;;;22.20;12.05;;;;;;;25.32;83.55;101685.31;5069048;28;20453;-84
2023/07/09 07:40:23;;;;;;;17.83;10.88;;;;;;;25.62;83.05;101691.69;5058781;28;20029;-85
2023/07/09 07:42:49;;;;;;;15.00;9.45;;;;;;;25.90;79.75;101695.59;5054797;28;20060;-85
2023/07/09 07:45:14;;;;;;;14.20;9.25;;;;;;;25.95;81.12;101689.25;5059170;28;20090;-85
2023/07/09 07:47:40;;;;;;;12.43;8.50;;;;;;;26.06;78.75;101698.28;5061832;28;20037;-85
2023/07/09 07:50:07;;;;;;;14.65;8.95;;;;;;;26.26;77.34;101691.41;5051968;28;20043;-85
2023/07/09 07:52:32;;;;;;;14.88;9.30;;;;;;;26.33;77.05;101700.53;5056322;28;20372;-85
2023/07/09 07:54:58;;;;;;;16.58;9.35;;;;;;;26.36;76.51;101693.84;5058245;28;20028;-85
2023/07/09 07:57:26;;;;;;;11.15;8.25;;;;;;;26.53;76.55;101694.41;5047108;28;20035;-85
2023/07/09 07:59:51;;;;;;;16.08;9.48;;;;;;;26.65;77.71;101692.78;5058602;28;20492;-83
2023/07/09 08:02:17;;;;;;;18.05;9.20;;;;;;;26.56;78.34;101690.66;5051300;28;20021;-83
2023/07/09 08:04:42;;;;;;;25.80;9.65;;;;;;;26.67;77.54;101700.88;5059986;28;20036;-83
2023/07/09 08:07:09;;;;;;;16.55;10.35;;;;;;;26.57;78.10;101697.19;5059507;28;20028;-83
2023/07/09 08:09:34;;;;;;;16.30;9.80;;;;;;;26.89;77.79;101700.84;5049314;28;20028;-83
2023/07/09 08:12:01;;;;;;;14.02;10.48;;;;;;;26.90;77.72;101694.63;5061627;28;20033;-84
2023/07/09 08:14:26;;;;;;;16.77;9.82;;;;;;;26.86;78.11;101693.16;5052684;28;20112;-84
2023/07/09 08:16:52;;;;;;;14.80;9.50;;;;;;;27.10;77.11;101684.78;5057087;28;20036;-84
2023/07/09 08:19:19;;;;;;;13.98;9.75;;;;;;;27.09;75.69;101692.63;5061576;28;20071;-83
2023/07/09 08:21:45;;;;;;;14.95;9.88;;;;;;;27.12;75.39;101690.88;5056931;28;22176;-84
2023/07/09 08:24:10;;;;;;;18.42;8.90;;;;;;;27.32;75.79;101694.16;5059240;28;20039;-83
2023/07/09 08:26:37;;;;;;;16.33;9.27;;;;;;;27.15;73.16;101695.66;5064709;28;20039;-83
2023/07/09 08:29:04;;;;;;;14.85;8.02;;;;;;;27.40;69.97;101696.69;5061638;28;20042;-84
2023/07/09 08:31:29;;;;;;;11.60;7.30;;;;;;;27.57;71.02;101698.78;5056282;28;20032;-83
2023/07/09 08:33:54;;;;;;;11.32;8.02;;;;;;;27.69;68.74;101699.13;5057393;28;20033;-83
2023/07/09 08:36:20;;;;;;;11.30;6.85;;;;;;;27.52;68.28;101707.25;5058685;28;20028;-83
2023/07/09 08:38:45;;;;;;;12.07;7.65;;;;;;;27.71;66.82;101703.13;5061239;28;20025;-83
2023/07/09 08:41:25;;;;;;;10.50;7.38;;;;;;;27.89;66.81;101707.28;5061514;28;20027;-84
2023/07/09 08:44:00;;;;;;;12.32;6.75;;;;;;;27.82;68.62;101707.59;5060396;28;20124;-84
2023/07/09 08:46:43;;;;;;;14.50;7.95;;;;;;;27.99;69.84;101708.91;5065129;28;20047;-84
2023/07/09 08:49:21;;;;;;;13.98;7.85;;;;;;;28.00;69.52;101706.81;5059225;28;20041;-84
2023/07/09 08:51:48;;;;;;;12.55;8.00;;;;;;;28.09;69.04;101713.38;5063579;28;20036;-83
2023/07/09 08:54:35;;;;;;;11.40;7.25;;;;;;;27.99;69.97;101708.91;5067210;28;20025;-84
2023/07/09 08:57:24;;;;;;;13.23;8.45;;;;;;;27.86;68.39;101709.06;5066831;28;20074;-84
2023/07/09 08:59:55;;;;;;;11.35;6.90;;;;;;;27.90;68.54;101708.91;5075453;28;20048;-84
2023/07/09 09:02:36;;;;;;;13.00;8.65;;;;;;;28.01;69.15;101709.22;5056712;28;20023;-87
2023/07/09 09:05:04;;;;;;;13.35;8.35;;;;;;;28.03;69.27;101723.91;5051710;28;20057;-76
2023/07/09 09:07:41;;;;;;;11.63;7.03;;;;;;;27.85;70.31;101710.31;5070242;28;20035;-76
2023/07/09 09:10:23;;;;;;;11.50;7.05;;;;;;;27.83;70.63;101709.19;5058082;28;20028;-77
2023/07/09 09:12:59;;;;;;;11.35;7.57;;;;;;;27.72;70.63;101707.59;5066110;28;20510;-76
2023/07/09 09:15:25;;;;;;;12.73;8.30;;;;;;;27.79;69.68;101706.50;5057576;28;20157;-76
2023/07/09 09:17:55;;;;;;;15.10;8.55;;;;;;;27.91;69.84;101704.75;5058574;28;20396;-76
2023/07/09 09:20:22;;;;;;;12.27;9.25;;;;;;;28.06;69.81;101699.94;5063809;28;20493;-77
2023/07/09 09:23:15;;;;;;;13.05;8.88;;;;;;;28.57;68.96;101701.31;5057812;28;20540;-76
2023/07/09 09:25:47;;;;;;;14.93;10.55;;;;;;;28.30;69.49;101700.06;5057617;28;20484;-76
2023/07/09 09:28:14;;;;;;;;;;;;;;;28.34;70.07;101705.66;5059928;28;20101;-77
2023/07/09 09:30:39;;;;;;;12.35;8.93;;;;;;;28.27;69.31;101709.69;5057645;28;20004;-77
2023/07/09 09:33:11;;;;;;;16.05;9.07;;;;;;;28.33;68.39;101712.69;5059132;28;20115;-76
2023/07/09 09:35:38;;;;;;;;;;;;;;;28.58;69.31;101703.69;5073299;28;20043;-76
2023/07/09 09:38:11;;;;;;;13.63;8.52;;;;;;;28.52;68.92;101708.50;5062357;28;19960;-76
2023/07/09 09:40:37;;;;;;;13.30;8.95;;;;;;;28.64;69.39;101703.03;5062110;28;20024;-76
2023/07/09 09:43:09;;;;;;;14.65;9.50;;;;;;;28.57;68.99;101699.22;5061101;28;20055;-75
2023/07/09 09:45:36;;;;;;;;;;;;;;;28.61;68.21;101707.69;5066504;28;20032;-76
2023/07/09 09:48:20;;;;;;;12.35;8.02;;;;;;;28.57;68.88;101693.47;5072282;28;20373;-76
2023/07/09 09:50:47;;;;;;;12.35;8.07;;;;;;;28.71;67.44;101691.94;5072377;28;20029;-75
2023/07/09 09:53:22;;;;;;;11.82;7.30;;;;;;;28.96;67.31;101696.47;5058448;28;20024;-75
2023/07/09 09:55:48;;;;;;;13.13;7.40;;;;;;;28.94;67.48;101684.66;5057974;28;20119;-75
2023/07/09 09:58:16;;;;;;;13.27;7.70;;;;;;;29.03;66.47;101695.34;5062185;28;20020;-76
2023/07/09 10:00:50;;;;;;;13.23;7.97;;;;;;;29.12;66.72;101685.88;5067856;28;20029;-76
2023/07/09 10:03:15;;;;;;;13.23;7.95;;;;;;;29.10;66.33;101685.56;5049392;28;20029;-75
2023/07/09 10:05:52;;;;;;;10.85;7.10;;;;;;;29.29;66.62;101689.16;5055302;28;20055;-75
2023/07/09 10:08:40;;;;;;;10.55;7.10;;;;;;;29.38;66.68;101686.97;5057794;28;20037;-75
2023/07/09 10:11:18;;;;;;;12.32;8.25;;;;;;;29.40;66.21;101683.59;5060512;28;20055;-75
2023/07/09 10:13:45;;;;;;;11.10;8.25;;;;;;;29.46;66.70;101683.75;5051119;28;20028;-74
2023/07/09 10:16:29;;;;;;;10.90;8.27;;;;;;;29.38;66.81;101681.22;5054982;28;20031;-75
2023/07/09 10:19:34;;;;;;;12.18;8.10;;;;;;;29.86;65.75;101685.38;5059643;28;20049;-75
2023/07/09 10:22:22;;;;;;;10.73;7.72;;;;;;;29.65;65.73;101681.50;5061527;28;20024;-76
2023/07/09 10:25:09;;;;;;;10.90;7.20;;;;;;;29.63;64.75;101689.88;5073432;28;20032;-75
2023/07/09 10:27:55;;;;;;;10.77;6.60;;;;;;;29.67;65.85;101690.47;5050204;28;20063;-76
2023/07/09 10:30:37;;;;;;;12.68;6.97;;;;;;;29.88;64.35;101683.56;5052975;28;20046;-75
2023/07/09 10:33:28;;;;;;;14.43;6.90;;;;;;;30.10;64.07;101688.19;5057906;28;20094;-76
2023/07/09 10:36:06;;;;;;;11.13;7.68;;;;;;;29.95;63.54;101679.50;5071280;28;20584;-75
2023/07/09 10:38:43;;;;;;;9.70;6.53;;;;;;;30.14;63.78;101675.13;5055036;28;20037;-76
2023/07/09 10:41:11;;;;;;;10.77;7.25;;;;;;;30.32;62.59;101676.28;5055878;28;20610;-74
2023/07/09 10:43:52;;;;;;;9.52;6.38;;;;;;;30.37;62.16;101666.91;5054685;28;20028;-75
2023/07/09 10:46:22;;;;;;;11.93;7.40;;;;;;;30.30;61.76;101667.31;5052704;28;20036;-75
2023/07/09 10:48:51;;;;;;;10.15;7.28;;;;;;;30.37;62.41;101664.81;5055148;28;20119;-75
2023/07/09 10:51:39;;;;;;;12.15;6.97;;;;;;;30.74;62.69;101660.69;5052187;28;20043;-82
2023/07/09 10:54:29;;;;;;;10.50;7.22;;;;;;;30.78;62.39;101655.47;5055068;28;20060;-82
2023/07/09 10:57:09;;;;;;;10.15;7.55;;;;;;;30.95;61.67;101653.69;5050108;28;20489;-82
2023/07/09 10:59:39;;;;;;;11.50;7.22;;;;;;;31.15;60.59;101660.78;5062424;28;20032;-82
2023/07/09 11:02:21;;;;;;;12.27;6.95;;;;;;;31.10;61.81;101658.63;5058116;28;20028;-82
2023/07/09 11:04:58;;;;;;;11.23;6.60;;;;;;;31.23;59.00;101656.16;5062150;28;20060;-82
2023/07/09 11:07:35;;;;;;;13.55;9.05;;;;;;;31.13;59.23;101648.91;5068158;28;20032;-82
2023/07/09 11:10:05;;;;;;;10.35;6.75;;;;;;;31.50;61.02;101657.06;5063462;28;20052;-81
2023/07/09 11:12:40;;;;;;;9.20;6.03;;;;;;;31.88;58.71;101660.88;5078424;28;20547;-82
2023/07/09 11:15:16;;;;;;;10.35;6.65;;;;;;;31.76;58.00;101652.09;5059503;28;20133;-82
2023/07/09 11:17:46;;;;;;;11.13;6.50;;;;;;;31.69;58.91;101645.94;5061985;28;20485;-81
2023/07/09 11:20:24;;;;;;;12.63;7.18;;;;;;;32.03;57.52;101635.56;5058553;28;20527;-82
2023/07/09 11:22:54;;;;;;;8.50;6.63;;;;;;;32.34;57.92;101648.47;5053024;28;20726;-81
2023/07/09 11:25:31;;;;;;;12.13;7.57;;;;;;;31.82;57.61;101648.47;5069317;28;20557;-81